createdAt,value
2022-12-18T00:01:52.036Z,100.00
2022-12-18T00:02:56.478Z,100.00
2022-12-18T04:07:08.145Z,100.00
2022-12-18T04:08:14.369Z,100.00
2022-12-18T04:09:19.377Z,100.00
2022-12-18T04:10:22.383Z,100.00
2022-12-18T04:11:25.824Z,100.00
2022-12-18T04:12:30.927Z,100.00
2022-12-18T04:13:37.327Z,100.00
2022-12-18T04:14:41.970Z,100.00
2022-12-18T04:15:44.876Z,100.00
2022-12-18T04:16:49.827Z,100.00
2022-12-18T04:17:52.892Z,100.00
2022-12-18T04:18:56.494Z,100.00
2022-12-18T04:19:59.853Z,100.00
2022-12-18T04:21:03.653Z,100.00
2022-12-18T04:22:06.666Z,100.00
2022-12-18T04:23:10.332Z,100.00
2022-12-18T04:24:13.587Z,100.00
2022-12-18T04:25:17.483Z,100.00
2022-12-18T04:26:23.156Z,100.00
2022-12-18T04:27:26.515Z,100.00
2022-12-18T04:28:29.748Z,100.00
2022-12-18T04:29:33.516Z,100.00
2022-12-18T04:30:37.527Z,100.00
2022-12-18T04:31:40.964Z,100.00
2022-12-18T04:32:47.738Z,100.00
2022-12-18T04:33:53.779Z,100.00
2022-12-18T04:34:57.023Z,100.00
2022-12-18T04:36:00.163Z,100.00
2022-12-18T04:37:03.872Z,100.00
2022-12-18T04:38:09.420Z,100.00
2022-12-18T04:39:13.480Z,100.00
2022-12-18T04:40:21.335Z,100.00
2022-12-18T04:41:24.546Z,100.00
2022-12-18T04:42:27.999Z,100.00
2022-12-18T04:43:31.275Z,100.00
2022-12-18T04:44:33.950Z,100.00
2022-12-18T04:45:36.926Z,100.00
2022-12-18T04:46:40.282Z,100.00
2022-12-18T04:47:43.097Z,100.00
2022-12-18T04:48:47.975Z,100.00
2022-12-18T04:49:51.234Z,100.00
2022-12-18T04:50:54.479Z,100.00
2022-12-18T04:51:57.356Z,100.00
2022-12-18T04:53:00.135Z,100.00
2022-12-18T04:54:03.279Z,100.00
2022-12-18T04:55:06.407Z,100.00
2022-12-18T04:56:12.065Z,100.00
2022-12-18T04:57:15.212Z,100.00
2022-12-18T04:58:18.086Z,100.00
2022-12-18T04:59:21.033Z,100.00
2022-12-18T05:00:24.870Z,100.00
2022-12-18T05:01:34.094Z,100.00
2022-12-18T05:02:37.579Z,100.00
2022-12-18T05:03:41.685Z,100.00
2022-12-18T05:04:45.086Z,100.00
2022-12-18T05:05:51.787Z,100.00
2022-12-18T05:06:54.931Z,100.00
2022-12-18T05:07:57.898Z,100.00
2022-12-18T05:09:01.345Z,100.00
2022-12-18T05:10:04.642Z,100.00
2022-12-18T05:11:12.586Z,100.00
2022-12-18T05:12:15.552Z,100.00
2022-12-18T05:13:18.231Z,100.00
2022-12-18T05:14:21.377Z,100.00
2022-12-18T05:15:24.117Z,100.00
2022-12-18T05:16:26.785Z,100.00
2022-12-18T05:17:29.990Z,100.00
2022-12-18T05:18:32.954Z,100.00
2022-12-18T05:19:35.973Z,100.00
2022-12-18T05:20:38.575Z,100.00
2022-12-18T05:21:41.583Z,100.00
2022-12-18T05:22:44.557Z,100.00
2022-12-18T05:23:47.271Z,100.00
2022-12-18T05:24:50.287Z,100.00
2022-12-18T05:26:01.416Z,100.00
2022-12-18T05:27:04.459Z,100.00
2022-12-18T05:28:08.162Z,100.00
2022-12-18T05:29:13.324Z,100.00
2022-12-18T05:30:17.570Z,100.00
2022-12-18T05:31:20.702Z,100.00
2022-12-18T05:32:23.598Z,100.00
2022-12-18T05:33:29.824Z,100.00
2022-12-18T05:34:32.462Z,100.00
2022-12-18T05:35:35.322Z,100.00
2022-12-18T05:36:37.948Z,100.00
2022-12-18T05:37:43.243Z,100.00
2022-12-18T05:38:47.123Z,100.00
2022-12-18T05:39:49.781Z,100.00
2022-12-18T05:40:53.742Z,100.00
2022-12-18T05:41:56.598Z,100.00
2022-12-18T05:42:59.301Z,100.00
2022-12-18T05:44:02.862Z,100.00
2022-12-18T05:45:06.629Z,100.00
2022-12-18T05:46:13.997Z,100.00
2022-12-18T05:47:16.801Z,100.00
2022-12-18T05:48:20.705Z,100.00
2022-12-18T05:49:23.850Z,100.00
2022-12-18T05:50:26.464Z,100.00
2022-12-18T05:51:29.351Z,100.00
2022-12-18T05:52:32.153Z,100.00
2022-12-18T05:53:36.031Z,100.00
2022-12-18T05:54:39.054Z,100.00
2022-12-18T05:55:43.798Z,100.00
2022-12-18T05:56:48.744Z,100.00
2022-12-18T05:57:51.702Z,100.00
2022-12-18T05:58:55.676Z,100.00
2022-12-18T05:59:58.836Z,100.00
2022-12-18T06:01:13.776Z,100.00
2022-12-18T06:02:16.915Z,100.00
2022-12-18T06:03:20.238Z,100.00
2022-12-18T06:04:24.203Z,100.00
2022-12-18T06:05:26.968Z,100.00
2022-12-18T06:06:30.156Z,100.00
2022-12-18T06:07:33.369Z,100.00
2022-12-18T06:08:36.135Z,100.00
2022-12-18T06:09:39.228Z,100.00
2022-12-18T06:10:42.560Z,100.00
2022-12-18T06:11:45.189Z,100.00
2022-12-18T06:12:48.189Z,100.00
2022-12-18T06:13:57.833Z,100.00
2022-12-18T06:15:01.637Z,100.00
2022-12-18T06:16:09.248Z,100.00
2022-12-18T06:17:12.977Z,100.00
2022-12-18T06:18:16.048Z,100.00
2022-12-18T06:19:18.812Z,100.00
2022-12-18T06:20:21.840Z,100.00
2022-12-18T06:21:24.964Z,100.00
2022-12-18T06:22:28.639Z,100.00
2022-12-18T06:23:32.180Z,100.00
2022-12-18T06:24:35.283Z,100.00
2022-12-18T06:25:39.703Z,100.00
2022-12-18T06:26:42.671Z,100.00
2022-12-18T06:27:45.312Z,100.00
2022-12-18T06:28:48.754Z,100.00
2022-12-18T06:29:51.744Z,100.00
2022-12-18T06:30:55.580Z,100.00
2022-12-18T06:31:58.223Z,100.00
2022-12-18T06:33:01.025Z,100.00
2022-12-18T06:34:05.879Z,100.00
2022-12-18T06:35:09.724Z,100.00
2022-12-18T06:36:14.342Z,100.00
2022-12-18T06:37:17.111Z,100.00
2022-12-18T06:38:19.840Z,100.00
2022-12-18T06:39:23.137Z,100.00
2022-12-18T06:40:25.937Z,100.00
2022-12-18T06:41:28.749Z,100.00
2022-12-18T06:42:31.357Z,100.00
2022-12-18T06:43:34.014Z,100.00
2022-12-18T06:44:37.411Z,100.00
2022-12-18T06:45:40.322Z,100.00
2022-12-18T06:46:43.040Z,100.00
2022-12-18T06:47:45.953Z,100.00
2022-12-18T06:48:50.481Z,100.00
2022-12-18T06:49:53.415Z,100.00
2022-12-18T06:50:56.496Z,100.00
2022-12-18T06:51:59.179Z,100.00
2022-12-18T06:53:01.981Z,100.00
2022-12-18T06:54:05.832Z,100.00
2022-12-18T06:55:10.391Z,100.00
2022-12-18T06:56:13.304Z,100.00
2022-12-18T06:57:16.264Z,100.00
2022-12-18T06:58:19.505Z,100.00
2022-12-18T06:59:22.249Z,100.00
2022-12-18T07:00:25.177Z,100.00
2022-12-18T07:01:28.569Z,100.00
2022-12-18T07:02:31.685Z,100.00
2022-12-18T07:03:34.515Z,100.00
2022-12-18T07:04:37.667Z,100.00
2022-12-18T07:05:42.018Z,100.00
2022-12-18T07:06:44.722Z,100.00
2022-12-18T07:07:47.731Z,100.00
2022-12-18T07:08:51.689Z,100.00
2022-12-18T07:09:54.528Z,100.00
2022-12-18T07:10:58.077Z,100.00
2022-12-18T07:12:00.735Z,100.00
2022-12-18T07:13:03.382Z,100.00
2022-12-18T07:14:05.971Z,100.00
2022-12-18T07:15:09.054Z,100.00
2022-12-18T07:16:19.691Z,100.00
2022-12-18T07:17:25.194Z,100.00
2022-12-18T07:18:28.261Z,100.00
2022-12-18T07:19:31.328Z,100.00
2022-12-18T07:20:35.409Z,100.00
2022-12-18T07:21:38.385Z,100.00
2022-12-18T07:22:41.547Z,100.00
2022-12-18T07:23:44.816Z,100.00
2022-12-18T07:24:47.568Z,100.00
2022-12-18T07:25:50.635Z,100.00
2022-12-18T07:26:54.322Z,100.00
2022-12-18T07:27:57.062Z,100.00
2022-12-18T07:29:00.225Z,100.00
2022-12-18T07:30:04.092Z,100.00
2022-12-18T07:31:09.528Z,100.00
2022-12-18T07:32:12.794Z,100.00
2022-12-18T07:33:16.713Z,100.00
2022-12-18T07:34:19.376Z,100.00
2022-12-18T07:35:24.916Z,100.00
2022-12-18T07:36:28.127Z,100.00
2022-12-18T07:37:31.100Z,100.00
2022-12-18T07:38:35.479Z,100.00
2022-12-18T07:39:38.309Z,100.00
2022-12-18T07:40:41.249Z,100.00
2022-12-18T07:41:47.662Z,100.00
2022-12-18T07:42:52.325Z,100.00
2022-12-18T07:43:55.454Z,100.00
2022-12-18T07:44:59.329Z,100.00
2022-12-18T07:46:03.112Z,100.00
2022-12-18T07:47:10.467Z,100.00
2022-12-18T07:48:15.299Z,100.00
2022-12-18T07:49:18.290Z,100.00
2022-12-18T07:50:21.250Z,100.00
2022-12-18T07:51:24.217Z,100.00
2022-12-18T07:52:27.058Z,100.00
2022-12-18T07:53:31.362Z,100.00
2022-12-18T07:54:34.030Z,100.00
2022-12-18T07:55:59.701Z,100.00
2022-12-18T07:57:00.818Z,100.00
2022-12-18T07:58:05.222Z,100.00
2022-12-18T07:59:08.213Z,100.00
2022-12-18T08:00:11.718Z,100.00
2022-12-18T08:01:14.899Z,100.00
2022-12-18T08:02:18.395Z,100.00
2022-12-18T08:03:22.062Z,100.00
2022-12-18T08:04:26.386Z,100.00
2022-12-18T08:05:29.325Z,100.00
2022-12-18T08:06:32.514Z,100.00
2022-12-18T08:07:42.069Z,100.00
2022-12-18T08:08:44.804Z,100.00
2022-12-18T08:09:47.510Z,100.00
2022-12-18T08:10:50.645Z,100.00
2022-12-18T08:11:53.368Z,100.00
2022-12-18T08:13:01.434Z,100.00
2022-12-18T08:14:07.228Z,100.00
2022-12-18T08:15:10.203Z,100.00
2022-12-18T08:16:13.338Z,100.00
2022-12-18T08:17:21.286Z,100.00
2022-12-18T08:18:25.261Z,100.00
2022-12-18T08:19:27.987Z,100.00
2022-12-18T08:20:30.684Z,100.00
2022-12-18T08:21:33.485Z,100.00
2022-12-18T08:22:40.047Z,100.00
2022-12-18T08:23:43.913Z,100.00
2022-12-18T08:24:46.753Z,100.00
2022-12-18T08:25:49.632Z,100.00
2022-12-18T08:27:20.868Z,100.00
2022-12-18T08:28:15.321Z,100.00
2022-12-18T08:29:21.710Z,100.00
2022-12-18T08:30:24.890Z,100.00
2022-12-18T08:31:29.397Z,100.00
2022-12-18T08:32:33.907Z,100.00
2022-12-18T08:33:38.849Z,100.00
2022-12-18T08:34:42.164Z,100.00
2022-12-18T08:35:46.178Z,100.00
2022-12-18T08:36:49.694Z,100.00
2022-12-18T08:37:52.369Z,100.00
2022-12-18T08:38:55.515Z,100.00
2022-12-18T08:39:58.492Z,100.00
2022-12-18T08:41:02.297Z,100.00
2022-12-18T08:42:23.527Z,100.00
2022-12-18T08:43:44.872Z,100.00
2022-12-18T08:44:47.602Z,100.00
2022-12-18T08:45:51.060Z,100.00
2022-12-18T08:46:53.783Z,100.00
2022-12-18T08:47:56.878Z,100.00
2022-12-18T08:48:59.974Z,100.00
2022-12-18T08:50:03.439Z,100.00
2022-12-18T08:51:06.659Z,100.00
2022-12-18T08:52:10.546Z,100.00
2022-12-18T08:53:13.157Z,100.00
2022-12-18T08:54:15.978Z,99.84
2022-12-18T08:55:19.191Z,99.76
2022-12-18T08:56:23.755Z,99.94
2022-12-18T08:57:26.579Z,100.00
2022-12-18T08:58:30.715Z,99.86
2022-12-18T08:59:33.718Z,100.00
2022-12-18T09:00:36.670Z,100.00
2022-12-18T09:01:39.938Z,100.00
2022-12-18T09:02:42.725Z,100.00
2022-12-18T09:03:45.807Z,100.00
2022-12-18T09:04:53.789Z,100.00
2022-12-18T09:06:00.567Z,99.11
2022-12-18T09:07:03.758Z,99.47
2022-12-18T09:08:06.880Z,99.83
2022-12-18T09:09:10.871Z,99.46
2022-12-18T09:10:13.543Z,99.36
2022-12-18T09:11:21.822Z,99.09
2022-12-18T09:12:25.129Z,99.14
2022-12-18T09:13:27.962Z,99.47
2022-12-18T09:14:30.726Z,99.74
2022-12-18T09:15:33.401Z,99.62
2022-12-18T09:16:36.862Z,99.51
2022-12-18T09:17:40.370Z,99.81
2022-12-18T09:18:43.488Z,100.00
2022-12-18T09:19:46.952Z,99.77
2022-12-18T09:20:51.295Z,99.83
2022-12-18T09:21:54.131Z,99.64
2022-12-18T09:22:57.580Z,99.37
2022-12-18T09:24:00.474Z,99.06
2022-12-18T09:25:03.366Z,98.39
2022-12-18T09:26:06.258Z,98.17
2022-12-18T09:27:09.221Z,98.25
2022-12-18T09:28:17.681Z,97.82
2022-12-18T09:29:20.341Z,97.61
2022-12-18T09:30:23.442Z,96.98
2022-12-18T09:31:26.575Z,96.89
2022-12-18T09:32:29.211Z,97.01
2022-12-18T09:33:32.999Z,96.96
2022-12-18T09:34:35.754Z,96.83
2022-12-18T09:35:38.869Z,96.96
2022-12-18T09:36:41.485Z,97.45
2022-12-18T09:37:44.505Z,98.05
2022-12-18T09:38:47.682Z,97.72
2022-12-18T09:39:50.349Z,97.46
2022-12-18T09:40:57.864Z,97.60
2022-12-18T09:42:00.656Z,97.63
2022-12-18T09:43:07.404Z,97.45
2022-12-18T09:44:17.376Z,97.42
2022-12-18T09:45:21.030Z,96.97
2022-12-18T09:46:30.266Z,96.72
2022-12-18T09:47:38.802Z,96.80
2022-12-18T09:48:47.335Z,96.47
2022-12-18T09:49:55.116Z,95.83
2022-12-18T09:51:03.639Z,95.04
2022-12-18T09:52:15.701Z,94.05
2022-12-18T09:53:27.952Z,93.46
2022-12-18T09:54:42.926Z,92.88
2022-12-18T09:55:48.111Z,91.74
2022-12-18T09:56:51.190Z,90.42
2022-12-18T09:58:01.316Z,90.33
2022-12-18T09:59:05.611Z,89.41
2022-12-18T10:00:11.727Z,89.14
2022-12-18T10:01:22.934Z,89.17
2022-12-18T10:02:27.942Z,89.33
2022-12-18T10:03:31.018Z,88.77
2022-12-18T10:04:33.895Z,88.75
2022-12-18T10:05:56.407Z,88.52
2022-12-18T10:07:10.699Z,88.11
2022-12-18T10:08:17.007Z,87.23
2022-12-18T10:09:32.019Z,87.31
2022-12-18T10:10:47.252Z,86.73
2022-12-18T10:11:54.345Z,86.27
2022-12-18T10:13:07.023Z,84.56
2022-12-18T10:14:36.840Z,82.47
2022-12-18T10:16:11.806Z,83.23
2022-12-18T10:17:20.377Z,81.45
2022-12-18T10:18:40.188Z,82.03
2022-12-18T10:19:57.729Z,82.41
2022-12-18T10:21:17.696Z,83.53
2022-12-18T10:22:25.653Z,83.76
2022-12-18T10:23:34.516Z,83.57
2022-12-18T10:24:55.550Z,84.09
2022-12-18T10:26:11.518Z,84.94
2022-12-18T10:27:22.658Z,83.50
2022-12-18T10:28:27.504Z,82.23
2022-12-18T10:29:30.344Z,81.38
2022-12-18T10:30:33.050Z,81.39
2022-12-18T10:31:36.828Z,81.11
2022-12-18T10:32:40.386Z,80.52
2022-12-18T10:33:43.340Z,81.21
2022-12-18T10:34:55.359Z,82.28
2022-12-18T10:36:02.751Z,83.03
2022-12-18T10:37:14.401Z,84.00
2022-12-18T10:38:17.298Z,84.96
2022-12-18T10:39:23.940Z,85.69
2022-12-18T10:40:26.610Z,85.75
2022-12-18T10:41:29.662Z,86.35
2022-12-18T10:42:33.097Z,86.97
2022-12-18T10:43:38.047Z,87.40
2022-12-18T10:44:40.744Z,87.71
2022-12-18T10:46:09.359Z,88.58
2022-12-18T10:47:20.448Z,89.44
2022-12-18T10:48:24.366Z,89.51
2022-12-18T10:49:30.804Z,89.74
2022-12-18T10:51:09.152Z,89.85
2022-12-18T10:52:25.831Z,89.58
2022-12-18T10:53:30.820Z,89.51
2022-12-18T10:54:36.103Z,89.88
2022-12-18T10:55:41.131Z,89.73
2022-12-18T10:56:44.977Z,89.86
2022-12-18T10:57:49.512Z,90.12
2022-12-18T10:59:07.755Z,90.05
2022-12-18T11:00:30.542Z,89.56
2022-12-18T11:01:48.585Z,90.39
2022-12-18T11:02:53.985Z,90.75
2022-12-18T11:04:09.145Z,90.63
2022-12-18T11:05:37.955Z,90.86
2022-12-18T11:06:58.279Z,89.98
2022-12-18T11:08:02.167Z,89.93
2022-12-18T11:09:13.252Z,89.84
2022-12-18T11:10:20.118Z,89.37
2022-12-18T11:11:24.444Z,89.36
2022-12-18T11:12:30.239Z,89.53
2022-12-18T11:13:33.131Z,89.76
2022-12-18T11:14:46.879Z,90.07
2022-12-18T11:15:51.157Z,89.53
2022-12-18T11:17:25.294Z,89.39
2022-12-18T11:18:21.679Z,89.89
2022-12-18T11:19:40.789Z,90.17
2022-12-18T11:20:58.173Z,90.03
2022-12-18T11:22:04.698Z,91.16
2022-12-18T11:23:14.759Z,91.32
2022-12-18T11:24:37.875Z,91.37
2022-12-18T11:25:51.801Z,91.65
2022-12-18T11:26:59.705Z,92.47
2022-12-18T11:28:27.063Z,92.95
2022-12-18T11:29:44.826Z,92.69
2022-12-18T11:30:49.290Z,91.42
2022-12-18T11:31:52.404Z,91.40
2022-12-18T11:32:59.742Z,91.04
2022-12-18T11:35:54.800Z,90.39
2022-12-18T11:37:00.208Z,89.74
2022-12-18T11:38:22.173Z,88.31
2022-12-18T11:39:40.494Z,87.52
2022-12-18T11:40:48.722Z,87.99
2022-12-18T11:42:10.429Z,87.91
2022-12-18T11:43:25.556Z,87.64
2022-12-18T11:44:36.980Z,88.71
2022-12-18T11:45:52.126Z,89.52
2022-12-18T11:47:03.560Z,89.73
2022-12-18T11:48:25.822Z,90.10
2022-12-18T11:49:40.257Z,90.69
2022-12-18T11:50:52.401Z,91.39
2022-12-18T11:52:04.041Z,91.51
2022-12-18T11:53:11.704Z,91.74
2022-12-18T11:54:17.257Z,92.24
2022-12-18T11:55:36.944Z,92.05
2022-12-18T11:56:53.793Z,91.98
2022-12-18T11:58:31.135Z,92.23
2022-12-18T11:59:40.902Z,92.56
2022-12-18T12:01:11.847Z,92.70
2022-12-18T12:02:42.804Z,92.01
2022-12-18T12:03:57.735Z,91.99
2022-12-18T12:05:19.323Z,93.18
2022-12-18T12:06:22.508Z,93.04
2022-12-18T12:07:59.940Z,92.76
2022-12-18T12:09:24.126Z,92.67
2022-12-18T12:11:00.534Z,93.40
2022-12-18T12:15:13.655Z,92.48
2022-12-18T12:16:26.085Z,92.55
2022-12-18T12:17:46.459Z,92.83
2022-12-18T12:19:25.081Z,93.06
2022-12-18T12:20:52.195Z,92.08
2022-12-18T12:22:19.693Z,92.12
2022-12-18T12:23:28.180Z,92.79
2022-12-18T12:24:56.823Z,93.22
2022-12-18T12:26:49.402Z,93.65
2022-12-18T12:28:04.371Z,93.47
2022-12-18T12:29:45.204Z,94.20
2022-12-18T12:32:18.005Z,94.70
2022-12-18T12:33:38.983Z,95.33
2022-12-18T12:35:17.894Z,95.41
2022-12-18T12:37:56.162Z,95.05
2022-12-18T12:39:06.653Z,94.79
2022-12-18T12:40:49.137Z,95.18
2022-12-18T12:41:59.802Z,94.57
2022-12-18T12:44:56.275Z,95.29
2022-12-18T12:46:15.358Z,95.89
2022-12-18T12:47:24.175Z,95.81
2022-12-18T12:48:45.231Z,96.54
2022-12-18T12:49:50.875Z,96.87
2022-12-18T12:50:56.498Z,96.65
2022-12-18T12:52:09.290Z,96.65
2022-12-18T12:53:34.241Z,96.61
2022-12-18T12:54:38.182Z,96.83
2022-12-18T12:55:43.759Z,96.92
2022-12-18T12:57:20.475Z,96.96
2022-12-18T12:58:49.150Z,97.49
2022-12-18T13:00:21.512Z,97.76
2022-12-18T13:02:15.427Z,97.11
2022-12-18T13:06:04.447Z,95.83
2022-12-18T13:07:20.697Z,95.80
2022-12-18T13:08:34.702Z,96.33
2022-12-18T13:10:35.925Z,96.00
2022-12-18T13:15:39.309Z,96.61
2022-12-18T13:16:43.108Z,97.30
2022-12-18T13:17:47.043Z,97.27
2022-12-18T13:19:03.911Z,97.00
2022-12-18T13:20:17.079Z,97.04
2022-12-18T13:21:30.854Z,96.85
2022-12-18T13:22:44.170Z,96.36
2022-12-18T13:23:46.973Z,96.86
2022-12-18T13:24:50.538Z,97.11
2022-12-18T13:26:11.305Z,97.23
2022-12-18T13:27:45.411Z,97.34
2022-12-18T13:28:48.687Z,96.96
2022-12-18T13:29:52.897Z,97.00
2022-12-18T13:30:57.728Z,97.14
2022-12-18T13:32:02.017Z,97.14
2022-12-18T13:33:25.741Z,96.97
2022-12-18T13:34:32.678Z,96.96
2022-12-18T13:35:40.842Z,97.13
2022-12-18T13:36:44.036Z,97.30
2022-12-18T13:37:54.240Z,97.42
2022-12-18T13:41:14.574Z,97.68
2022-12-18T13:43:13.245Z,97.92
2022-12-18T13:44:41.900Z,98.11
2022-12-18T13:45:51.528Z,98.29
2022-12-18T13:47:26.210Z,97.87
2022-12-18T13:49:08.513Z,98.42
2022-12-18T13:53:17.390Z,98.61
2022-12-18T13:54:22.256Z,98.73
2022-12-18T13:58:12.984Z,98.98
2022-12-18T14:03:46.925Z,98.14
2022-12-18T14:04:52.188Z,98.00
2022-12-18T14:08:17.529Z,97.71
2022-12-18T14:13:33.226Z,96.64
2022-12-18T14:14:36.258Z,96.35
2022-12-18T14:18:33.498Z,96.77
2022-12-18T14:19:37.098Z,97.52
2022-12-18T14:20:46.505Z,97.42
2022-12-18T14:22:30.355Z,97.39
2022-12-18T14:28:16.588Z,97.89
2022-12-18T14:32:05.831Z,98.38
2022-12-18T14:38:24.339Z,99.29
2022-12-18T14:39:27.286Z,100.00
2022-12-18T14:43:00.359Z,100.00
2022-12-18T14:44:08.300Z,100.00
2022-12-18T14:47:44.894Z,100.00
2022-12-18T14:48:49.025Z,100.00
2022-12-18T14:49:51.709Z,100.00
2022-12-18T14:51:11.402Z,99.59
2022-12-18T14:52:34.276Z,99.57
2022-12-18T14:54:15.421Z,99.56
2022-12-18T14:55:23.858Z,98.70
2022-12-18T14:56:45.613Z,98.90
2022-12-18T14:57:55.436Z,99.47
2022-12-18T15:01:36.321Z,100.00
2022-12-18T15:02:40.980Z,100.00
2022-12-18T15:03:46.523Z,100.00
2022-12-18T15:05:11.307Z,100.00
2022-12-18T15:06:18.691Z,100.00
2022-12-18T15:07:28.505Z,100.00
2022-12-18T15:08:38.089Z,100.00
2022-12-18T15:09:53.505Z,100.00
2022-12-18T15:10:58.309Z,100.00
2022-12-18T15:12:03.682Z,100.00
2022-12-18T15:13:07.466Z,100.00
2022-12-18T15:14:33.111Z,100.00
2022-12-18T15:15:43.953Z,100.00
2022-12-18T15:16:53.029Z,100.00
2022-12-18T15:18:03.677Z,100.00
2022-12-18T15:19:09.858Z,100.00
2022-12-18T15:20:15.472Z,100.00
2022-12-18T15:21:21.854Z,100.00
2022-12-18T15:22:34.929Z,100.00
2022-12-18T15:23:38.888Z,100.00
2022-12-18T15:24:45.209Z,100.00
2022-12-18T15:26:16.900Z,100.00
2022-12-18T15:27:39.486Z,100.00
2022-12-18T15:29:08.243Z,100.00
2022-12-18T15:30:31.316Z,100.00
2022-12-18T15:31:36.828Z,99.88
2022-12-18T15:32:41.585Z,99.70
2022-12-18T15:33:47.414Z,99.71
2022-12-18T15:34:51.270Z,99.67
2022-12-18T15:36:03.992Z,98.96
2022-12-18T15:37:09.645Z,98.64
2022-12-18T15:38:13.709Z,98.59
2022-12-18T15:39:18.074Z,98.78
2022-12-18T15:40:25.355Z,98.88
2022-12-18T15:41:29.300Z,99.03
2022-12-18T15:42:51.797Z,99.13
2022-12-18T15:43:55.739Z,99.40
2022-12-18T15:44:59.831Z,99.79
2022-12-18T15:46:08.332Z,99.61
2022-12-18T15:47:14.990Z,99.54
2022-12-18T15:48:23.219Z,99.46
2022-12-18T15:49:27.272Z,99.61
2022-12-18T15:50:31.009Z,99.89
2022-12-18T15:51:39.817Z,99.94
2022-12-18T15:52:47.080Z,99.64
2022-12-18T15:53:56.604Z,99.67
2022-12-18T15:55:18.925Z,99.96
2022-12-18T15:56:42.127Z,99.97
2022-12-18T15:57:47.391Z,100.00
2022-12-18T15:58:53.527Z,100.00
2022-12-18T15:59:59.649Z,100.00
2022-12-18T16:01:03.585Z,100.00
2022-12-18T16:02:20.836Z,100.00
2022-12-18T16:03:24.666Z,100.00
2022-12-18T16:04:38.580Z,100.00
2022-12-18T16:05:43.870Z,100.00
2022-12-18T16:08:12.348Z,100.00
2022-12-18T16:09:15.749Z,100.00
2022-12-18T16:10:19.638Z,100.00
2022-12-18T16:12:04.423Z,100.00
2022-12-18T16:13:16.973Z,100.00
2022-12-18T16:14:25.284Z,100.00
2022-12-18T16:15:29.265Z,100.00
2022-12-18T16:16:35.066Z,100.00
2022-12-18T16:17:40.181Z,100.00
2022-12-18T16:18:44.557Z,100.00
2022-12-18T16:19:49.447Z,100.00
2022-12-18T16:20:53.776Z,100.00
2022-12-18T16:21:59.462Z,100.00
2022-12-18T16:23:04.036Z,100.00
2022-12-18T16:24:19.667Z,100.00
2022-12-18T16:25:27.759Z,100.00
2022-12-18T16:26:32.013Z,100.00
2022-12-18T16:27:36.141Z,100.00
2022-12-18T16:28:45.239Z,100.00
2022-12-18T16:29:52.259Z,99.91
2022-12-18T16:30:59.330Z,99.78
2022-12-18T16:32:05.968Z,99.57
2022-12-18T16:33:12.328Z,98.75
2022-12-18T16:34:29.927Z,98.77
2022-12-18T16:35:33.752Z,98.72
2022-12-18T16:36:37.631Z,98.16
2022-12-18T16:37:42.976Z,97.87
2022-12-18T16:38:48.305Z,98.07
2022-12-18T16:39:51.368Z,97.90
2022-12-18T16:41:15.455Z,97.44
2022-12-18T16:42:21.538Z,97.27
2022-12-18T16:43:25.971Z,97.29
2022-12-18T16:44:29.489Z,97.16
2022-12-18T16:45:34.399Z,97.18
2022-12-18T16:46:38.993Z,97.35
2022-12-18T16:47:43.563Z,97.58
2022-12-18T16:48:47.069Z,97.75
2022-12-18T16:49:53.744Z,98.04
2022-12-18T16:51:04.498Z,97.93
2022-12-18T16:52:11.703Z,97.80
2022-12-18T16:53:18.391Z,97.70
2022-12-18T16:54:22.726Z,98.13
2022-12-18T16:55:27.727Z,98.06
2022-12-18T16:56:32.455Z,97.72
2022-12-18T16:57:36.678Z,97.84
2022-12-18T16:58:41.221Z,97.19
2022-12-18T16:59:47.601Z,97.03
2022-12-18T17:00:52.563Z,97.16
2022-12-18T17:01:57.862Z,96.75
2022-12-18T17:03:03.607Z,96.68
2022-12-18T17:04:09.098Z,96.61
2022-12-18T17:05:12.970Z,96.62
2022-12-18T17:06:16.619Z,96.12
2022-12-18T17:07:21.366Z,95.92
2022-12-18T17:08:25.888Z,95.91
2022-12-18T17:09:30.759Z,96.27
2022-12-18T17:10:36.527Z,96.10
2022-12-18T17:11:42.017Z,96.05
2022-12-18T17:12:46.429Z,95.97
2022-12-18T17:13:51.326Z,96.08
2022-12-18T17:14:55.358Z,96.29
2022-12-18T17:16:11.473Z,96.11
2022-12-18T17:17:23.596Z,96.22
2022-12-18T17:18:28.344Z,95.92
2022-12-18T17:19:31.418Z,96.04
2022-12-18T17:20:35.212Z,96.18
2022-12-18T17:21:39.000Z,96.26
2022-12-18T17:22:44.656Z,96.39
2022-12-18T17:23:56.290Z,96.74
2022-12-18T17:25:00.231Z,97.00
2022-12-18T17:26:07.875Z,97.19
2022-12-18T17:27:13.730Z,97.02
2022-12-18T17:28:17.368Z,97.18
2022-12-18T17:29:23.310Z,97.09
2022-12-18T17:30:30.336Z,97.27
2022-12-18T17:31:34.580Z,97.54
2022-12-18T17:32:38.464Z,97.49
2022-12-18T17:33:42.911Z,97.40
2022-12-18T17:34:47.471Z,97.57
2022-12-18T17:35:51.752Z,97.57
2022-12-18T17:36:55.806Z,97.61
2022-12-18T17:38:00.179Z,97.68
2022-12-18T17:39:06.880Z,97.77
2022-12-18T17:40:11.121Z,97.92
2022-12-18T17:41:37.037Z,98.04
2022-12-18T17:43:21.442Z,98.32
2022-12-18T17:46:42.327Z,99.12
2022-12-18T17:47:51.018Z,99.40
2022-12-18T17:49:00.287Z,99.65
2022-12-18T17:50:05.463Z,99.74
2022-12-18T17:51:11.543Z,99.50
2022-12-18T17:52:15.251Z,99.64
2022-12-18T17:53:22.178Z,99.83
2022-12-18T17:54:26.358Z,99.58
2022-12-18T17:55:30.221Z,100.00
2022-12-18T17:56:42.018Z,100.00
2022-12-18T17:57:45.926Z,100.00
2022-12-18T17:58:51.639Z,100.00
2022-12-18T17:59:55.335Z,100.00
2022-12-18T18:01:01.488Z,100.00
2022-12-18T18:02:05.700Z,100.00
2022-12-18T18:03:11.186Z,100.00
2022-12-18T18:04:16.202Z,100.00
2022-12-18T18:05:20.091Z,100.00
2022-12-18T18:06:24.571Z,100.00
2022-12-18T18:07:28.755Z,100.00
2022-12-18T18:08:34.606Z,100.00
2022-12-18T18:09:45.877Z,100.00
2022-12-18T18:10:50.383Z,100.00
2022-12-18T18:12:12.771Z,100.00
2022-12-18T18:13:46.437Z,100.00
2022-12-18T18:14:51.013Z,100.00
2022-12-18T18:15:59.881Z,100.00
2022-12-18T18:17:04.804Z,100.00
2022-12-18T18:18:09.099Z,100.00
2022-12-18T18:19:19.585Z,100.00
2022-12-18T18:20:23.188Z,100.00
2022-12-18T18:21:27.908Z,100.00
2022-12-18T18:22:33.128Z,100.00
2022-12-18T18:23:37.445Z,100.00
2022-12-18T18:24:45.530Z,99.91
2022-12-18T18:25:50.004Z,100.00
2022-12-18T18:27:00.314Z,99.51
2022-12-18T18:28:05.355Z,99.18
2022-12-18T18:29:14.666Z,98.84
2022-12-18T18:30:20.675Z,98.49
2022-12-18T18:31:24.612Z,98.34
2022-12-18T18:32:28.399Z,98.32
2022-12-18T18:33:35.812Z,98.39
2022-12-18T18:34:40.432Z,98.14
2022-12-18T18:35:54.558Z,98.11
2022-12-18T18:37:00.457Z,98.25
2022-12-18T18:38:05.466Z,98.17
2022-12-18T18:39:10.035Z,98.14
2022-12-18T18:40:14.921Z,98.04
2022-12-18T18:41:24.588Z,98.17
2022-12-18T18:42:29.394Z,98.15
2022-12-18T18:43:34.229Z,97.98
2022-12-18T18:44:45.761Z,97.91
2022-12-18T18:46:01.065Z,97.98
2022-12-18T18:47:06.956Z,97.95
2022-12-18T18:48:14.656Z,98.11
2022-12-18T18:49:18.680Z,98.25
2022-12-18T18:50:28.353Z,98.53
2022-12-18T18:51:35.278Z,98.95
2022-12-18T18:52:40.478Z,99.10
2022-12-18T18:53:50.165Z,99.31
2022-12-18T18:55:12.419Z,99.37
2022-12-18T18:57:57.386Z,99.81
2022-12-18T18:59:02.175Z,100.00
2022-12-18T19:00:06.365Z,100.00
2022-12-18T19:01:16.586Z,99.99
2022-12-18T19:02:21.801Z,100.00
2022-12-18T19:03:26.582Z,100.00
2022-12-18T19:04:31.365Z,100.00
2022-12-18T19:05:36.443Z,100.00
2022-12-18T19:06:41.616Z,100.00
2022-12-18T19:07:45.824Z,99.97
2022-12-18T19:08:51.948Z,99.97
2022-12-18T19:09:56.079Z,99.99
2022-12-18T19:11:04.379Z,100.00
2022-12-18T19:12:30.199Z,100.00
2022-12-18T19:13:35.892Z,100.00
2022-12-18T19:14:43.051Z,100.00
2022-12-18T19:15:56.249Z,100.00
2022-12-18T19:17:04.962Z,100.00
2022-12-18T19:18:28.548Z,100.00
2022-12-18T19:20:22.356Z,100.00
2022-12-18T19:21:26.691Z,100.00
2022-12-18T19:22:31.219Z,100.00
2022-12-18T19:23:38.195Z,100.00
2022-12-18T19:24:42.736Z,100.00
2022-12-18T19:25:50.664Z,100.00
2022-12-18T19:26:55.404Z,100.00
2022-12-18T19:28:01.857Z,100.00
2022-12-18T19:29:10.654Z,100.00
2022-12-18T19:30:28.018Z,100.00